01:12 Rennrad Moetz - Pettnau - Zirl - Kematen - Voels - Radweg - Innsbruck ARZ
Ort Moetz Datum 07.06.2016 06:25:14
Kategorie Rennrad
Distanz 39,16 Kilometer Steigung 83,0 Meter Gefälle -148,0 Meter
Gesamt Zeit 01:12:53 Aktiv 01:12:00 Pause 00:00:53
Durchs. Tempo 32,7 km/h Tempo max. 46,6 km/h Tempo min. 22,1 km/h
Kalorien 0 Durchs. HF 132 BPM HF max. 162 BPM
Wetter 14 °C PartClouds Min/Max: 11,9 °C/16,5 °C; Druck: 1022,1 mbar; Rel. Feuchte: 90,4%; Taupunkt: 11,8 °C; Windgeschwindigkeit: 0,7 km/h; Niederschlag: 0,0mm
Ausrüstung Bontrager - RXL Road
Continental - Grand Prix 4000 S II 25-622
Poison - Rennrad
Shimano - HG CN-7901 Dura Ace
Notiz Moetz - Pettnau - Zirl - Kematen - Voels - Radweg - Innsbruck ARZ ... trocken, nicht kalt, bis Telfs und ab Zirl Rückenwind, locker bis flott (2,3) ... garmin connect
Splits
Distanz (km) Gesamt Zeit Split Zeit Split Tempo Split Tempo Höhenprofil (m)
1,00 00:02:12 00:02:12 00:02:13 27,1 -9,84
2,00 00:04:04 00:01:52 00:01:52 32,1 0,11
3,00 00:05:49 00:01:44 00:01:45 34,4 -0,62
4,00 00:07:36 00:01:46 00:01:47 33,7 -3,90
5,00 00:09:21 00:01:45 00:01:46 34,1 0,65
6,00 00:11:08 00:01:47 00:01:47 33,6 -0,35
7,00 00:12:57 00:01:48 00:01:48 33,3 -0,95
8,00 00:14:39 00:01:42 00:01:43 35,0 -7,66
9,00 00:16:24 00:01:44 00:01:44 34,5 -2,78
10,00 00:18:15 00:01:51 00:01:52 32,3 0,82
11,00 00:20:12 00:01:56 00:01:57 30,9 0,54
12,00 00:22:03 00:01:51 00:01:52 32,3 -6,55
13,00 00:23:53 00:01:49 00:01:49 32,9 -0,15
14,00 00:25:47 00:01:54 00:01:54 31,5 0,34
15,00 00:27:44 00:01:57 00:01:57 30,8 -5,18
16,00 00:29:27 00:01:42 00:01:43 35,1 3,78
17,00 00:31:18 00:01:50 00:01:51 32,5 -7,98
18,00 00:33:09 00:01:51 00:01:51 32,3 0,00
19,00 00:35:01 00:01:51 00:01:52 32,3 -0,55
20,00 00:36:52 00:01:51 00:01:52 32,2 -0,85
21,00 00:38:45 00:01:52 00:01:52 32,1 -3,42
22,00 00:40:31 00:01:46 00:01:46 33,9 -4,21
23,00 00:42:30 00:01:59 00:02:00 30,1 11,54
24,00 00:44:24 00:01:53 00:01:53 31,8 -0,28
25,00 00:46:49 00:02:25 00:02:25 24,8 16,03
26,00 00:48:26 00:01:36 00:01:37 37,2 -9,59
27,00 00:49:54 00:01:28 00:01:28 40,9 -30,09
28,00 00:51:34 00:01:40 00:01:40 35,9 4,07
29,00 00:53:25 00:01:51 00:01:51 32,4 0,76
30,00 00:55:10 00:01:44 00:01:45 34,4 -2,66
31,00 00:56:46 00:01:35 00:01:36 37,6 -3,26
32,00 00:58:23 00:01:37 00:01:38 36,9 -1,10
33,00 01:00:11 00:01:48 00:01:48 33,3 2,09
34,00 01:02:14 00:02:03 00:02:03 29,2 -7,95
35,00 01:04:01 00:01:46 00:01:46 33,9 -3,73
36,00 01:05:48 00:01:47 00:01:48 33,4 -2,00
37,00 01:07:36 00:01:48 00:01:48 33,3 -1,91
38,00 01:09:37 00:02:01 00:02:01 29,7 0,36
39,00 01:11:35 00:01:57 00:01:58 30,5 6,75
39,19 01:11:59 00:00:23 00:02:03 29,3 0,01